< < Back
Terminal Aerodrome Forecast


Current Version              Previous Versions:   1  2  3  4  5  6  7  8  9  

Terminal Aerodrome Forecast

754
FTUS42 KTAE 301729
TAFABY
TAF
KABY 301729Z 3018/0118 27011KT P6SM VCTS SCT035CB
      TEMPO 3019/3023 VRB15G30KT 3SM TSRA BKN025CB
     FM010100 22005KT P6SM SCT100 BKN200
     FM011400 25005KT P6SM SCT040=



Latest METAR

208
SAUS70 KWBC 010000 RRK
MTRABY
METAR KABY 302353Z AUTO 25007KT 10SM -RA SCT080 BKN090 25/21 A3002 RMK
AO2 RAB44 SLP164 P0000 60001 T02500211 10300 20239 55009


USA.gov is the U.S. government's official web portal to all federal, state and local government web resources and services.